sensor_id;sensor_type;location;lat;lon;timestamp;temperature;humidity
975;DHT22;6115;49.296;10.602;2023-08-17T00:00:31;23.10;72.30
975;DHT22;6115;49.296;10.602;2023-08-17T00:05:31;22.90;72.30
975;DHT22;6115;49.296;10.602;2023-08-17T00:10:33;22.80;72.70
975;DHT22;6115;49.296;10.602;2023-08-17T00:15:34;22.80;73.30
975;DHT22;6115;49.296;10.602;2023-08-17T00:20:34;22.80;73.00
975;DHT22;6115;49.296;10.602;2023-08-17T00:25:35;22.80;72.80
975;DHT22;6115;49.296;10.602;2023-08-17T00:30:38;22.80;72.80
975;DHT22;6115;49.296;10.602;2023-08-17T00:35:39;22.90;72.20
975;DHT22;6115;49.296;10.602;2023-08-17T00:40:39;22.90;72.10
975;DHT22;6115;49.296;10.602;2023-08-17T00:45:41;23.00;72.10
975;DHT22;6115;49.296;10.602;2023-08-17T00:50:42;22.90;72.00
975;DHT22;6115;49.296;10.602;2023-08-17T00:55:44;22.90;72.00
975;DHT22;6115;49.296;10.602;2023-08-17T01:00:45;23.00;72.10
975;DHT22;6115;49.296;10.602;2023-08-17T01:05:49;23.00;72.90
975;DHT22;6115;49.296;10.602;2023-08-17T01:11:00;23.00;72.10
975;DHT22;6115;49.296;10.602;2023-08-17T01:16:05;23.10;72.30
975;DHT22;6115;49.296;10.602;2023-08-17T01:21:09;23.00;72.10
975;DHT22;6115;49.296;10.602;2023-08-17T01:26:10;23.00;72.30
975;DHT22;6115;49.296;10.602;2023-08-17T01:31:17;22.90;72.60
975;DHT22;6115;49.296;10.602;2023-08-17T01:36:30;23.00;73.00
975;DHT22;6115;49.296;10.602;2023-08-17T01:41:32;22.80;73.20
975;DHT22;6115;49.296;10.602;2023-08-17T01:46:33;22.70;73.80
975;DHT22;6115;49.296;10.602;2023-08-17T01:51:34;22.70;73.90
975;DHT22;6115;49.296;10.602;2023-08-17T01:56:34;22.60;74.20
975;DHT22;6115;49.296;10.602;2023-08-17T02:01:35;22.50;74.40
975;DHT22;6115;49.296;10.602;2023-08-17T02:06:35;22.50;74.60
975;DHT22;6115;49.296;10.602;2023-08-17T02:11:36;22.60;74.80
975;DHT22;6115;49.296;10.602;2023-08-17T02:16:36;22.60;74.80
975;DHT22;6115;49.296;10.602;2023-08-17T02:21:37;22.50;75.20
975;DHT22;6115;49.296;10.602;2023-08-17T02:26:37;22.50;74.90
975;DHT22;6115;49.296;10.602;2023-08-17T02:31:38;22.50;74.80
975;DHT22;6115;49.296;10.602;2023-08-17T02:36:39;22.50;74.90
975;DHT22;6115;49.296;10.602;2023-08-17T02:41:39;22.40;74.50
975;DHT22;6115;49.296;10.602;2023-08-17T02:46:41;22.30;74.50
975;DHT22;6115;49.296;10.602;2023-08-17T02:51:41;22.10;74.50
975;DHT22;6115;49.296;10.602;2023-08-17T02:56:42;22.00;74.70
975;DHT22;6115;49.296;10.602;2023-08-17T03:01:44;22.00;74.80
975;DHT22;6115;49.296;10.602;2023-08-17T03:06:44;21.90;74.60
975;DHT22;6115;49.296;10.602;2023-08-17T03:11:45;21.90;74.70
975;DHT22;6115;49.296;10.602;2023-08-17T03:16:45;21.90;74.30
975;DHT22;6115;49.296;10.602;2023-08-17T03:21:46;21.80;74.00
975;DHT22;6115;49.296;10.602;2023-08-17T03:26:46;21.80;73.90
975;DHT22;6115;49.296;10.602;2023-08-17T03:31:47;21.70;73.80
975;DHT22;6115;49.296;10.602;2023-08-17T03:36:50;21.60;73.90
975;DHT22;6115;49.296;10.602;2023-08-17T03:41:50;21.50;74.60
975;DHT22;6115;49.296;10.602;2023-08-17T03:46:51;21.40;74.90
975;DHT22;6115;49.296;10.602;2023-08-17T03:51:51;21.40;74.90
975;DHT22;6115;49.296;10.602;2023-08-17T03:56:52;21.20;75.40
975;DHT22;6115;49.296;10.602;2023-08-17T04:01:53;21.10;76.00
975;DHT22;6115;49.296;10.602;2023-08-17T04:06:53;21.10;75.70
975;DHT22;6115;49.296;10.602;2023-08-17T04:11:54;21.10;76.30
975;DHT22;6115;49.296;10.602;2023-08-17T04:16:55;21.00;75.70
975;DHT22;6115;49.296;10.602;2023-08-17T04:21:58;21.00;76.00
975;DHT22;6115;49.296;10.602;2023-08-17T04:26:58;20.90;75.50
975;DHT22;6115;49.296;10.602;2023-08-17T04:31:59;20.90;75.60
975;DHT22;6115;49.296;10.602;2023-08-17T04:37:00;20.80;76.20
975;DHT22;6115;49.296;10.602;2023-08-17T04:42:00;20.70;76.60
975;DHT22;6115;49.296;10.602;2023-08-17T04:47:01;20.70;76.80
975;DHT22;6115;49.296;10.602;2023-08-17T04:52:01;20.70;76.70
975;DHT22;6115;49.296;10.602;2023-08-17T04:57:03;20.70;77.00
975;DHT22;6115;49.296;10.602;2023-08-17T05:02:05;20.70;77.00
975;DHT22;6115;49.296;10.602;2023-08-17T05:07:06;20.70;77.00
975;DHT22;6115;49.296;10.602;2023-08-17T05:12:07;20.60;77.20
975;DHT22;6115;49.296;10.602;2023-08-17T05:17:08;20.70;77.30
975;DHT22;6115;49.296;10.602;2023-08-17T05:22:11;20.70;77.30
975;DHT22;6115;49.296;10.602;2023-08-17T05:27:11;20.70;77.60
975;DHT22;6115;49.296;10.602;2023-08-17T05:32:12;20.70;78.60
975;DHT22;6115;49.296;10.602;2023-08-17T05:37:13;20.80;78.30
975;DHT22;6115;49.296;10.602;2023-08-17T05:42:14;20.80;78.40
975;DHT22;6115;49.296;10.602;2023-08-17T05:47:15;20.90;78.20
975;DHT22;6115;49.296;10.602;2023-08-17T05:52:17;21.00;78.20
975;DHT22;6115;49.296;10.602;2023-08-17T05:57:18;21.10;78.20
975;DHT22;6115;49.296;10.602;2023-08-17T06:02:19;21.20;78.20
975;DHT22;6115;49.296;10.602;2023-08-17T06:07:19;21.20;77.80
975;DHT22;6115;49.296;10.602;2023-08-17T06:12:20;21.30;77.60
975;DHT22;6115;49.296;10.602;2023-08-17T06:17:20;21.40;77.30
975;DHT22;6115;49.296;10.602;2023-08-17T06:22:21;21.50;75.80
975;DHT22;6115;49.296;10.602;2023-08-17T06:27:21;21.70;75.90
975;DHT22;6115;49.296;10.602;2023-08-17T06:32:22;21.80;75.70
975;DHT22;6115;49.296;10.602;2023-08-17T06:37:23;21.90;75.50
975;DHT22;6115;49.296;10.602;2023-08-17T06:42:23;22.10;74.70
975;DHT22;6115;49.296;10.602;2023-08-17T06:47:24;22.20;74.80
975;DHT22;6115;49.296;10.602;2023-08-17T06:52:24;22.40;73.90
975;DHT22;6115;49.296;10.602;2023-08-17T06:57:25;22.50;74.00
975;DHT22;6115;49.296;10.602;2023-08-17T07:02:28;22.60;74.10
975;DHT22;6115;49.296;10.602;2023-08-17T07:07:30;22.70;74.30
975;DHT22;6115;49.296;10.602;2023-08-17T07:12:31;22.90;72.40
975;DHT22;6115;49.296;10.602;2023-08-17T07:17:32;23.20;72.30
975;DHT22;6115;49.296;10.602;2023-08-17T07:22:34;23.40;72.10
975;DHT22;6115;49.296;10.602;2023-08-17T07:27:35;23.60;71.70
975;DHT22;6115;49.296;10.602;2023-08-17T07:32:36;23.80;72.30
975;DHT22;6115;49.296;10.602;2023-08-17T07:37:36;23.90;70.40
975;DHT22;6115;49.296;10.602;2023-08-17T07:42:37;24.10;68.20
975;DHT22;6115;49.296;10.602;2023-08-17T07:47:38;24.30;68.70
975;DHT22;6115;49.296;10.602;2023-08-17T07:52:38;24.50;68.10
975;DHT22;6115;49.296;10.602;2023-08-17T07:57:39;24.70;67.30
975;DHT22;6115;49.296;10.602;2023-08-17T08:02:39;24.90;66.60
975;DHT22;6115;49.296;10.602;2023-08-17T08:07:40;25.10;65.30
975;DHT22;6115;49.296;10.602;2023-08-17T08:12:41;25.30;64.10
975;DHT22;6115;49.296;10.602;2023-08-17T08:17:41;25.50;63.20
975;DHT22;6115;49.296;10.602;2023-08-17T08:22:42;25.70;61.70
975;DHT22;6115;49.296;10.602;2023-08-17T08:27:42;25.80;63.00
975;DHT22;6115;49.296;10.602;2023-08-17T08:32:43;26.00;62.60
975;DHT22;6115;49.296;10.602;2023-08-17T08:37:44;26.10;62.10
975;DHT22;6115;49.296;10.602;2023-08-17T08:42:44;26.10;61.50
975;DHT22;6115;49.296;10.602;2023-08-17T08:47:45;26.10;61.80
975;DHT22;6115;49.296;10.602;2023-08-17T08:53:02;26.30;61.70
975;DHT22;6115;49.296;10.602;2023-08-17T08:58:04;26.60;58.80
975;DHT22;6115;49.296;10.602;2023-08-17T09:03:06;26.80;57.80
975;DHT22;6115;49.296;10.602;2023-08-17T09:08:09;26.80;58.00
975;DHT22;6115;49.296;10.602;2023-08-17T09:13:12;27.10;56.90
975;DHT22;6115;49.296;10.602;2023-08-17T09:18:13;27.30;56.10
975;DHT22;6115;49.296;10.602;2023-08-17T09:23:16;27.50;54.70
975;DHT22;6115;49.296;10.602;2023-08-17T09:28:18;27.90;53.70
975;DHT22;6115;49.296;10.602;2023-08-17T09:33:23;28.40;52.20
975;DHT22;6115;49.296;10.602;2023-08-17T09:38:25;28.60;52.00
975;DHT22;6115;49.296;10.602;2023-08-17T09:43:25;29.00;52.60
975;DHT22;6115;49.296;10.602;2023-08-17T09:48:34;29.60;50.00
975;DHT22;6115;49.296;10.602;2023-08-17T09:53:35;30.00;48.20
975;DHT22;6115;49.296;10.602;2023-08-17T09:58:39;30.10;48.30
975;DHT22;6115;49.296;10.602;2023-08-17T10:03:43;30.20;48.30
975;DHT22;6115;49.296;10.602;2023-08-17T10:08:47;30.60;47.70
975;DHT22;6115;49.296;10.602;2023-08-17T10:13:52;31.00;44.20
975;DHT22;6115;49.296;10.602;2023-08-17T10:19:18;31.20;44.20
975;DHT22;6115;49.296;10.602;2023-08-17T10:24:19;31.50;42.50
975;DHT22;6115;49.296;10.602;2023-08-17T10:29:22;31.50;44.70
975;DHT22;6115;49.296;10.602;2023-08-17T10:34:24;31.90;42.70
975;DHT22;6115;49.296;10.602;2023-08-17T10:39:27;32.30;41.70
975;DHT22;6115;49.296;10.602;2023-08-17T10:44:38;32.40;40.80
975;DHT22;6115;49.296;10.602;2023-08-17T10:49:42;32.30;40.50
975;DHT22;6115;49.296;10.602;2023-08-17T10:54:43;32.30;41.10
975;DHT22;6115;49.296;10.602;2023-08-17T10:59:43;32.70;40.40
975;DHT22;6115;49.296;10.602;2023-08-17T11:04:50;32.70;41.70
975;DHT22;6115;49.296;10.602;2023-08-17T11:09:53;32.80;40.40
975;DHT22;6115;49.296;10.602;2023-08-17T11:14:57;33.00;39.00
975;DHT22;6115;49.296;10.602;2023-08-17T11:19:59;32.90;40.30
975;DHT22;6115;49.296;10.602;2023-08-17T11:25:00;32.60;39.50
975;DHT22;6115;49.296;10.602;2023-08-17T11:30:01;32.50;40.20
975;DHT22;6115;49.296;10.602;2023-08-17T11:35:02;32.50;41.90
975;DHT22;6115;49.296;10.602;2023-08-17T11:40:03;32.40;40.10
975;DHT22;6115;49.296;10.602;2023-08-17T11:45:05;32.50;39.70
975;DHT22;6115;49.296;10.602;2023-08-17T11:50:08;32.30;40.70
975;DHT22;6115;49.296;10.602;2023-08-17T11:55:10;32.30;40.70
975;DHT22;6115;49.296;10.602;2023-08-17T12:00:20;32.50;40.20
975;DHT22;6115;49.296;10.602;2023-08-17T12:05:25;32.50;38.30
975;DHT22;6115;49.296;10.602;2023-08-17T12:10:29;32.30;39.00
975;DHT22;6115;49.296;10.602;2023-08-17T12:15:32;32.30;37.30
975;DHT22;6115;49.296;10.602;2023-08-17T12:20:33;32.70;38.00
975;DHT22;6115;49.296;10.602;2023-08-17T12:25:37;32.90;36.30
975;DHT22;6115;49.296;10.602;2023-08-17T12:30:37;33.00;37.60
975;DHT22;6115;49.296;10.602;2023-08-17T12:35:38;33.40;38.60
975;DHT22;6115;49.296;10.602;2023-08-17T12:40:38;33.60;36.70
975;DHT22;6115;49.296;10.602;2023-08-17T12:45:39;33.30;36.90
975;DHT22;6115;49.296;10.602;2023-08-17T12:50:39;33.50;38.00
975;DHT22;6115;49.296;10.602;2023-08-17T12:55:40;33.50;36.10
975;DHT22;6115;49.296;10.602;2023-08-17T13:00:41;33.80;35.20
975;DHT22;6115;49.296;10.602;2023-08-17T13:05:41;33.90;33.80
975;DHT22;6115;49.296;10.602;2023-08-17T13:10:42;33.70;34.20
975;DHT22;6115;49.296;10.602;2023-08-17T13:15:42;33.60;35.60
975;DHT22;6115;49.296;10.602;2023-08-17T13:20:43;33.10;36.70
975;DHT22;6115;49.296;10.602;2023-08-17T13:25:44;33.30;35.10
975;DHT22;6115;49.296;10.602;2023-08-17T13:30:44;33.60;36.10
975;DHT22;6115;49.296;10.602;2023-08-17T13:35:45;34.00;33.00
975;DHT22;6115;49.296;10.602;2023-08-17T13:40:45;34.50;32.10
975;DHT22;6115;49.296;10.602;2023-08-17T13:45:46;34.40;31.90
975;DHT22;6115;49.296;10.602;2023-08-17T13:50:47;34.00;34.10
975;DHT22;6115;49.296;10.602;2023-08-17T13:55:47;33.80;36.50
975;DHT22;6115;49.296;10.602;2023-08-17T14:00:48;33.50;35.90
975;DHT22;6115;49.296;10.602;2023-08-17T14:05:49;33.20;37.60
975;DHT22;6115;49.296;10.602;2023-08-17T14:10:50;33.00;37.90
975;DHT22;6115;49.296;10.602;2023-08-17T14:15:50;32.00;39.20
975;DHT22;6115;49.296;10.602;2023-08-17T14:20:51;30.70;40.30
975;DHT22;6115;49.296;10.602;2023-08-17T14:25:52;30.00;41.60
975;DHT22;6115;49.296;10.602;2023-08-17T14:30:52;29.90;42.90
975;DHT22;6115;49.296;10.602;2023-08-17T14:35:53;29.60;43.20
975;DHT22;6115;49.296;10.602;2023-08-17T14:40:53;28.90;44.50
975;DHT22;6115;49.296;10.602;2023-08-17T14:45:54;28.60;51.20
975;DHT22;6115;49.296;10.602;2023-08-17T14:50:55;28.30;53.00
975;DHT22;6115;49.296;10.602;2023-08-17T14:55:56;27.90;57.40
975;DHT22;6115;49.296;10.602;2023-08-17T15:00:56;27.70;56.10
975;DHT22;6115;49.296;10.602;2023-08-17T15:05:57;27.30;57.60
975;DHT22;6115;49.296;10.602;2023-08-17T15:10:57;26.00;60.20
975;DHT22;6115;49.296;10.602;2023-08-17T15:16:02;24.10;63.80
975;DHT22;6115;49.296;10.602;2023-08-17T15:21:02;23.10;67.80
975;DHT22;6115;49.296;10.602;2023-08-17T15:26:03;22.30;68.80
975;DHT22;6115;49.296;10.602;2023-08-17T15:31:04;20.80;74.40
975;DHT22;6115;49.296;10.602;2023-08-17T15:36:05;19.50;78.80
975;DHT22;6115;49.296;10.602;2023-08-17T15:41:06;19.00;82.80
975;DHT22;6115;49.296;10.602;2023-08-17T15:46:07;19.10;86.30
975;DHT22;6115;49.296;10.602;2023-08-17T15:51:08;19.40;88.20
975;DHT22;6115;49.296;10.602;2023-08-17T15:56:09;19.50;87.50
975;DHT22;6115;49.296;10.602;2023-08-17T16:01:09;19.50;87.70
975;DHT22;6115;49.296;10.602;2023-08-17T16:06:10;19.50;88.30
975;DHT22;6115;49.296;10.602;2023-08-17T16:11:11;19.50;87.70
975;DHT22;6115;49.296;10.602;2023-08-17T16:16:11;19.50;88.30
975;DHT22;6115;49.296;10.602;2023-08-17T16:21:12;19.70;88.50
975;DHT22;6115;49.296;10.602;2023-08-17T16:26:13;19.70;88.50
975;DHT22;6115;49.296;10.602;2023-08-17T16:31:13;19.90;88.70
975;DHT22;6115;49.296;10.602;2023-08-17T16:36:14;20.00;88.90
975;DHT22;6115;49.296;10.602;2023-08-17T16:41:14;20.00;89.60
975;DHT22;6115;49.296;10.602;2023-08-17T16:46:15;20.00;89.90
975;DHT22;6115;49.296;10.602;2023-08-17T16:51:15;19.90;90.10
975;DHT22;6115;49.296;10.602;2023-08-17T16:56:16;19.90;90.10
975;DHT22;6115;49.296;10.602;2023-08-17T17:01:17;20.00;90.40
975;DHT22;6115;49.296;10.602;2023-08-17T17:06:18;20.10;90.60
975;DHT22;6115;49.296;10.602;2023-08-17T17:11:19;20.10;90.70
975;DHT22;6115;49.296;10.602;2023-08-17T17:16:20;20.10;90.60
975;DHT22;6115;49.296;10.602;2023-08-17T17:21:21;20.10;90.60
975;DHT22;6115;49.296;10.602;2023-08-17T17:26:22;20.10;90.50
975;DHT22;6115;49.296;10.602;2023-08-17T17:31:22;20.10;90.60
975;DHT22;6115;49.296;10.602;2023-08-17T17:36:23;20.30;90.70
975;DHT22;6115;49.296;10.602;2023-08-17T17:41:23;20.30;90.20
975;DHT22;6115;49.296;10.602;2023-08-17T17:46:24;20.20;90.20
975;DHT22;6115;49.296;10.602;2023-08-17T17:51:24;20.30;90.20
975;DHT22;6115;49.296;10.602;2023-08-17T17:56:42;20.30;89.80
975;DHT22;6115;49.296;10.602;2023-08-17T18:01:42;20.30;90.00
975;DHT22;6115;49.296;10.602;2023-08-17T18:06:43;20.40;90.10
975;DHT22;6115;49.296;10.602;2023-08-17T18:11:43;20.50;89.80
975;DHT22;6115;49.296;10.602;2023-08-17T18:16:44;20.40;89.20
975;DHT22;6115;49.296;10.602;2023-08-17T18:21:45;20.40;89.40
975;DHT22;6115;49.296;10.602;2023-08-17T18:26:45;20.40;89.20
975;DHT22;6115;49.296;10.602;2023-08-17T18:31:46;20.50;89.30
975;DHT22;6115;49.296;10.602;2023-08-17T18:36:46;20.50;89.60
975;DHT22;6115;49.296;10.602;2023-08-17T18:41:47;20.50;90.00
975;DHT22;6115;49.296;10.602;2023-08-17T18:46:47;20.60;89.50
975;DHT22;6115;49.296;10.602;2023-08-17T18:51:48;20.60;89.40
975;DHT22;6115;49.296;10.602;2023-08-17T18:56:48;20.70;89.50
975;DHT22;6115;49.296;10.602;2023-08-17T19:01:49;20.50;89.30
975;DHT22;6115;49.296;10.602;2023-08-17T19:06:50;20.50;89.30
975;DHT22;6115;49.296;10.602;2023-08-17T19:11:50;20.50;89.50
975;DHT22;6115;49.296;10.602;2023-08-17T19:16:51;20.50;88.60
975;DHT22;6115;49.296;10.602;2023-08-17T19:21:51;20.40;88.60
975;DHT22;6115;49.296;10.602;2023-08-17T19:26:52;20.40;87.70
975;DHT22;6115;49.296;10.602;2023-08-17T19:31:52;20.20;87.90
975;DHT22;6115;49.296;10.602;2023-08-17T19:36:53;20.20;87.40
975;DHT22;6115;49.296;10.602;2023-08-17T19:41:53;20.10;87.20
975;DHT22;6115;49.296;10.602;2023-08-17T19:46:55;20.10;87.40
975;DHT22;6115;49.296;10.602;2023-08-17T19:51:57;20.00;86.70
975;DHT22;6115;49.296;10.602;2023-08-17T19:56:59;20.00;86.10
975;DHT22;6115;49.296;10.602;2023-08-17T20:02:00;19.90;86.20
975;DHT22;6115;49.296;10.602;2023-08-17T20:07:00;19.80;86.20
975;DHT22;6115;49.296;10.602;2023-08-17T20:12:03;19.80;86.60
975;DHT22;6115;49.296;10.602;2023-08-17T20:17:05;19.70;86.50
975;DHT22;6115;49.296;10.602;2023-08-17T20:22:06;19.70;87.30
975;DHT22;6115;49.296;10.602;2023-08-17T20:27:08;19.70;87.60
975;DHT22;6115;49.296;10.602;2023-08-17T20:32:08;19.70;88.00
975;DHT22;6115;49.296;10.602;2023-08-17T20:37:09;19.70;87.80
975;DHT22;6115;49.296;10.602;2023-08-17T20:42:10;19.70;87.50
975;DHT22;6115;49.296;10.602;2023-08-17T20:47:12;19.70;86.90
975;DHT22;6115;49.296;10.602;2023-08-17T20:52:15;19.60;86.20
975;DHT22;6115;49.296;10.602;2023-08-17T20:57:15;19.60;85.90
975;DHT22;6115;49.296;10.602;2023-08-17T21:02:16;19.50;86.10
975;DHT22;6115;49.296;10.602;2023-08-17T21:07:16;19.60;85.90
975;DHT22;6115;49.296;10.602;2023-08-17T21:12:17;19.60;85.10
975;DHT22;6115;49.296;10.602;2023-08-17T21:17:17;19.50;84.80
975;DHT22;6115;49.296;10.602;2023-08-17T21:22:18;19.50;84.40
975;DHT22;6115;49.296;10.602;2023-08-17T21:27:18;19.50;84.30
975;DHT22;6115;49.296;10.602;2023-08-17T21:32:19;19.50;84.10
975;DHT22;6115;49.296;10.602;2023-08-17T21:37:24;19.40;84.20
975;DHT22;6115;49.296;10.602;2023-08-17T21:42:25;19.40;84.30
975;DHT22;6115;49.296;10.602;2023-08-17T21:47:26;19.50;84.30
975;DHT22;6115;49.296;10.602;2023-08-17T21:52:26;19.50;83.90
975;DHT22;6115;49.296;10.602;2023-08-17T21:57:27;19.50;83.70
975;DHT22;6115;49.296;10.602;2023-08-17T22:02:28;19.50;84.10
975;DHT22;6115;49.296;10.602;2023-08-17T22:07:28;19.50;83.40
975;DHT22;6115;49.296;10.602;2023-08-17T22:12:29;19.50;82.50
975;DHT22;6115;49.296;10.602;2023-08-17T22:17:29;19.50;82.50
975;DHT22;6115;49.296;10.602;2023-08-17T22:22:30;19.30;82.40
975;DHT22;6115;49.296;10.602;2023-08-17T22:27:30;19.30;82.70
975;DHT22;6115;49.296;10.602;2023-08-17T22:32:31;19.30;82.70
975;DHT22;6115;49.296;10.602;2023-08-17T22:37:32;19.20;82.30
975;DHT22;6115;49.296;10.602;2023-08-17T22:42:32;19.20;82.40
975;DHT22;6115;49.296;10.602;2023-08-17T22:47:33;19.20;82.50
975;DHT22;6115;49.296;10.602;2023-08-17T22:52:33;19.10;83.10
975;DHT22;6115;49.296;10.602;2023-08-17T22:57:34;19.10;83.10
975;DHT22;6115;49.296;10.602;2023-08-17T23:02:34;19.10;82.30
975;DHT22;6115;49.296;10.602;2023-08-17T23:07:35;19.00;82.30
975;DHT22;6115;49.296;10.602;2023-08-17T23:12:35;19.00;83.20
975;DHT22;6115;49.296;10.602;2023-08-17T23:17:36;19.00;82.90
975;DHT22;6115;49.296;10.602;2023-08-17T23:22:37;19.00;82.50
975;DHT22;6115;49.296;10.602;2023-08-17T23:27:38;19.00;82.80
975;DHT22;6115;49.296;10.602;2023-08-17T23:32:38;18.90;82.90
975;DHT22;6115;49.296;10.602;2023-08-17T23:37:39;18.90;82.90
975;DHT22;6115;49.296;10.602;2023-08-17T23:42:41;18.80;82.80
975;DHT22;6115;49.296;10.602;2023-08-17T23:47:42;18.90;82.90
975;DHT22;6115;49.296;10.602;2023-08-17T23:52:43;18.80;82.40
975;DHT22;6115;49.296;10.602;2023-08-17T23:57:44;18.70;82.60
